sensor_id;sensor_type;location;lat;lon;timestamp;temperature;humidity
29363;DHT22;16349;53.672;10.014;2023-06-01T00:02:00;12.10;99.90
29363;DHT22;16349;53.672;10.014;2023-06-01T00:04:28;12.00;99.90
29363;DHT22;16349;53.672;10.014;2023-06-01T00:06:55;12.00;99.90
29363;DHT22;16349;53.672;10.014;2023-06-01T00:09:23;11.90;99.90
29363;DHT22;16349;53.672;10.014;2023-06-01T00:11:50;11.90;99.90
29363;DHT22;16349;53.672;10.014;2023-06-01T00:14:17;11.90;99.90
29363;DHT22;16349;53.672;10.014;2023-06-01T00:16:44;11.90;99.90
29363;DHT22;16349;53.672;10.014;2023-06-01T00:19:11;12.00;99.90
29363;DHT22;16349;53.672;10.014;2023-06-01T00:21:38;12.00;99.90
29363;DHT22;16349;53.672;10.014;2023-06-01T00:24:07;11.90;99.90
29363;DHT22;16349;53.672;10.014;2023-06-01T00:26:35;11.90;99.90
29363;DHT22;16349;53.672;10.014;2023-06-01T00:29:02;11.90;99.90
29363;DHT22;16349;53.672;10.014;2023-06-01T00:31:30;11.90;99.90
29363;DHT22;16349;53.672;10.014;2023-06-01T00:33:58;11.90;99.90
29363;DHT22;16349;53.672;10.014;2023-06-01T00:36:25;11.90;99.90
29363;DHT22;16349;53.672;10.014;2023-06-01T00:38:52;11.90;99.90
29363;DHT22;16349;53.672;10.014;2023-06-01T00:41:19;11.90;99.90
29363;DHT22;16349;53.672;10.014;2023-06-01T00:43:50;11.90;99.90
29363;DHT22;16349;53.672;10.014;2023-06-01T00:46:17;11.90;99.90
29363;DHT22;16349;53.672;10.014;2023-06-01T00:49:02;11.90;99.90
29363;DHT22;16349;53.672;10.014;2023-06-01T00:51:29;11.80;99.90
29363;DHT22;16349;53.672;10.014;2023-06-01T00:53:57;11.80;99.90
29363;DHT22;16349;53.672;10.014;2023-06-01T00:56:24;11.80;99.90
29363;DHT22;16349;53.672;10.014;2023-06-01T00:58:53;11.90;99.90
29363;DHT22;16349;53.672;10.014;2023-06-01T01:01:20;11.90;99.90
29363;DHT22;16349;53.672;10.014;2023-06-01T01:03:49;11.80;99.90
29363;DHT22;16349;53.672;10.014;2023-06-01T01:06:31;11.80;99.90
29363;DHT22;16349;53.672;10.014;2023-06-01T01:09:08;11.80;99.90
29363;DHT22;16349;53.672;10.014;2023-06-01T01:11:37;11.80;99.90
29363;DHT22;16349;53.672;10.014;2023-06-01T01:14:16;11.80;99.90
29363;DHT22;16349;53.672;10.014;2023-06-01T01:16:48;11.80;99.90
29363;DHT22;16349;53.672;10.014;2023-06-01T01:19:29;11.80;99.90
29363;DHT22;16349;53.672;10.014;2023-06-01T01:22:09;11.80;99.90
29363;DHT22;16349;53.672;10.014;2023-06-01T01:24:46;11.80;99.90
29363;DHT22;16349;53.672;10.014;2023-06-01T01:27:24;11.80;99.90
29363;DHT22;16349;53.672;10.014;2023-06-01T01:30:06;11.80;99.90
29363;DHT22;16349;53.672;10.014;2023-06-01T01:32:35;11.80;99.90
29363;DHT22;16349;53.672;10.014;2023-06-01T01:35:04;11.80;99.90
29363;DHT22;16349;53.672;10.014;2023-06-01T01:37:32;11.80;99.90
29363;DHT22;16349;53.672;10.014;2023-06-01T01:39:59;11.80;99.90
29363;DHT22;16349;53.672;10.014;2023-06-01T01:42:27;11.80;99.90
29363;DHT22;16349;53.672;10.014;2023-06-01T01:44:54;11.80;99.90
29363;DHT22;16349;53.672;10.014;2023-06-01T01:47:33;11.70;99.90
29363;DHT22;16349;53.672;10.014;2023-06-01T01:50:06;11.70;99.90
29363;DHT22;16349;53.672;10.014;2023-06-01T01:52:38;11.70;99.90
29363;DHT22;16349;53.672;10.014;2023-06-01T01:55:08;11.70;99.90
29363;DHT22;16349;53.672;10.014;2023-06-01T01:57:36;11.70;99.90
29363;DHT22;16349;53.672;10.014;2023-06-01T02:00:05;11.70;99.90
29363;DHT22;16349;53.672;10.014;2023-06-01T02:02:39;11.70;99.90
29363;DHT22;16349;53.672;10.014;2023-06-01T02:05:07;11.70;99.90
29363;DHT22;16349;53.672;10.014;2023-06-01T02:07:34;11.70;99.90
29363;DHT22;16349;53.672;10.014;2023-06-01T02:10:04;11.70;99.90
29363;DHT22;16349;53.672;10.014;2023-06-01T02:12:32;11.70;99.90
29363;DHT22;16349;53.672;10.014;2023-06-01T02:14:59;11.70;99.90
29363;DHT22;16349;53.672;10.014;2023-06-01T02:17:26;11.80;99.90
29363;DHT22;16349;53.672;10.014;2023-06-01T02:19:55;11.80;99.90
29363;DHT22;16349;53.672;10.014;2023-06-01T02:22:21;11.80;99.90
29363;DHT22;16349;53.672;10.014;2023-06-01T02:24:48;11.80;99.90
29363;DHT22;16349;53.672;10.014;2023-06-01T02:27:15;11.80;99.90
29363;DHT22;16349;53.672;10.014;2023-06-01T02:29:42;11.90;99.90
29363;DHT22;16349;53.672;10.014;2023-06-01T02:32:09;11.90;99.90
29363;DHT22;16349;53.672;10.014;2023-06-01T02:34:36;11.90;99.90
29363;DHT22;16349;53.672;10.014;2023-06-01T02:37:05;11.90;99.90
29363;DHT22;16349;53.672;10.014;2023-06-01T02:39:32;11.80;99.90
29363;DHT22;16349;53.672;10.014;2023-06-01T02:42:00;11.70;99.90
29363;DHT22;16349;53.672;10.014;2023-06-01T02:44:28;11.70;99.90
29363;DHT22;16349;53.672;10.014;2023-06-01T02:46:55;11.70;99.90
29363;DHT22;16349;53.672;10.014;2023-06-01T02:49:21;11.70;99.90
29363;DHT22;16349;53.672;10.014;2023-06-01T02:51:48;11.60;99.90
29363;DHT22;16349;53.672;10.014;2023-06-01T02:54:20;11.60;99.90
29363;DHT22;16349;53.672;10.014;2023-06-01T02:56:47;11.60;99.90
29363;DHT22;16349;53.672;10.014;2023-06-01T02:59:21;11.60;99.90
29363;DHT22;16349;53.672;10.014;2023-06-01T03:01:54;11.60;99.90
29363;DHT22;16349;53.672;10.014;2023-06-01T03:04:22;11.60;99.90
29363;DHT22;16349;53.672;10.014;2023-06-01T03:06:49;11.60;99.90
29363;DHT22;16349;53.672;10.014;2023-06-01T03:09:29;11.60;99.90
29363;DHT22;16349;53.672;10.014;2023-06-01T03:12:18;11.60;99.90
29363;DHT22;16349;53.672;10.014;2023-06-01T03:14:45;11.60;99.90
29363;DHT22;16349;53.672;10.014;2023-06-01T03:17:12;11.60;99.90
29363;DHT22;16349;53.672;10.014;2023-06-01T03:19:39;11.60;99.90
29363;DHT22;16349;53.672;10.014;2023-06-01T03:22:15;11.70;99.90
29363;DHT22;16349;53.672;10.014;2023-06-01T03:24:43;11.60;99.90
29363;DHT22;16349;53.672;10.014;2023-06-01T03:27:17;11.60;99.90
29363;DHT22;16349;53.672;10.014;2023-06-01T03:29:45;11.50;99.90
29363;DHT22;16349;53.672;10.014;2023-06-01T03:32:13;11.20;99.90
29363;DHT22;16349;53.672;10.014;2023-06-01T03:34:41;11.50;99.90
29363;DHT22;16349;53.672;10.014;2023-06-01T03:37:09;11.50;99.90
29363;DHT22;16349;53.672;10.014;2023-06-01T03:39:36;11.40;99.90
29363;DHT22;16349;53.672;10.014;2023-06-01T03:42:07;11.50;99.90
29363;DHT22;16349;53.672;10.014;2023-06-01T03:44:34;11.60;99.90
29363;DHT22;16349;53.672;10.014;2023-06-01T03:47:02;11.60;99.90
29363;DHT22;16349;53.672;10.014;2023-06-01T03:49:29;11.60;99.90
29363;DHT22;16349;53.672;10.014;2023-06-01T03:51:56;11.60;99.90
29363;DHT22;16349;53.672;10.014;2023-06-01T03:54:23;11.60;99.90
29363;DHT22;16349;53.672;10.014;2023-06-01T03:56:50;11.60;99.90
29363;DHT22;16349;53.672;10.014;2023-06-01T03:59:18;11.60;99.90
29363;DHT22;16349;53.672;10.014;2023-06-01T04:01:45;11.60;99.90
29363;DHT22;16349;53.672;10.014;2023-06-01T04:04:14;11.60;99.90
29363;DHT22;16349;53.672;10.014;2023-06-01T04:06:42;11.50;99.90
29363;DHT22;16349;53.672;10.014;2023-06-01T04:09:11;11.60;99.90
29363;DHT22;16349;53.672;10.014;2023-06-01T04:11:41;11.50;99.90
29363;DHT22;16349;53.672;10.014;2023-06-01T04:14:09;11.60;99.90
29363;DHT22;16349;53.672;10.014;2023-06-01T04:16:37;11.50;99.90
29363;DHT22;16349;53.672;10.014;2023-06-01T04:19:04;11.60;99.90
29363;DHT22;16349;53.672;10.014;2023-06-01T04:21:31;11.60;99.90
29363;DHT22;16349;53.672;10.014;2023-06-01T04:23:58;11.60;99.90
29363;DHT22;16349;53.672;10.014;2023-06-01T04:26:25;11.60;99.90
29363;DHT22;16349;53.672;10.014;2023-06-01T04:28:53;11.60;99.90
29363;DHT22;16349;53.672;10.014;2023-06-01T04:31:23;11.60;99.90
29363;DHT22;16349;53.672;10.014;2023-06-01T04:33:51;11.60;99.90
29363;DHT22;16349;53.672;10.014;2023-06-01T04:36:22;11.60;99.90
29363;DHT22;16349;53.672;10.014;2023-06-01T04:38:53;11.60;99.90
29363;DHT22;16349;53.672;10.014;2023-06-01T04:41:21;11.60;99.90
29363;DHT22;16349;53.672;10.014;2023-06-01T04:43:49;11.70;99.90
29363;DHT22;16349;53.672;10.014;2023-06-01T04:46:18;11.70;99.90
29363;DHT22;16349;53.672;10.014;2023-06-01T04:48:46;11.70;99.90
29363;DHT22;16349;53.672;10.014;2023-06-01T04:51:36;11.70;99.90
29363;DHT22;16349;53.672;10.014;2023-06-01T04:54:04;11.70;99.90
29363;DHT22;16349;53.672;10.014;2023-06-01T04:56:31;11.80;99.90
29363;DHT22;16349;53.672;10.014;2023-06-01T04:58:58;11.80;99.90
29363;DHT22;16349;53.672;10.014;2023-06-01T05:01:28;11.80;99.90
29363;DHT22;16349;53.672;10.014;2023-06-01T05:03:57;11.80;99.90
29363;DHT22;16349;53.672;10.014;2023-06-01T05:06:25;11.80;99.90
29363;DHT22;16349;53.672;10.014;2023-06-01T05:08:54;11.80;99.90
29363;DHT22;16349;53.672;10.014;2023-06-01T05:11:22;11.80;99.90
29363;DHT22;16349;53.672;10.014;2023-06-01T05:13:50;11.80;99.90
29363;DHT22;16349;53.672;10.014;2023-06-01T05:16:18;11.80;99.90
29363;DHT22;16349;53.672;10.014;2023-06-01T05:18:46;11.80;99.90
29363;DHT22;16349;53.672;10.014;2023-06-01T05:21:13;11.80;99.90
29363;DHT22;16349;53.672;10.014;2023-06-01T05:23:41;11.80;99.90
29363;DHT22;16349;53.672;10.014;2023-06-01T05:26:09;11.80;99.90
29363;DHT22;16349;53.672;10.014;2023-06-01T05:28:36;11.80;99.90
29363;DHT22;16349;53.672;10.014;2023-06-01T05:31:26;11.80;99.90
29363;DHT22;16349;53.672;10.014;2023-06-01T05:33:55;11.70;99.90
29363;DHT22;16349;53.672;10.014;2023-06-01T05:36:23;11.80;99.90
29363;DHT22;16349;53.672;10.014;2023-06-01T05:39:08;11.80;99.90
29363;DHT22;16349;53.672;10.014;2023-06-01T05:41:38;11.80;99.90
29363;DHT22;16349;53.672;10.014;2023-06-01T05:44:06;11.80;99.90
29363;DHT22;16349;53.672;10.014;2023-06-01T05:46:33;11.80;99.90
29363;DHT22;16349;53.672;10.014;2023-06-01T05:49:00;11.80;99.90
29363;DHT22;16349;53.672;10.014;2023-06-01T05:51:30;11.80;99.90
29363;DHT22;16349;53.672;10.014;2023-06-01T05:53:58;11.70;99.90
29363;DHT22;16349;53.672;10.014;2023-06-01T05:56:25;11.70;99.90
29363;DHT22;16349;53.672;10.014;2023-06-01T05:58:54;11.70;99.90
29363;DHT22;16349;53.672;10.014;2023-06-01T06:01:21;11.60;99.90
29363;DHT22;16349;53.672;10.014;2023-06-01T06:03:49;11.70;99.90
29363;DHT22;16349;53.672;10.014;2023-06-01T06:06:17;11.70;99.90
29363;DHT22;16349;53.672;10.014;2023-06-01T06:08:44;11.70;99.90
29363;DHT22;16349;53.672;10.014;2023-06-01T06:11:11;11.70;99.90
29363;DHT22;16349;53.672;10.014;2023-06-01T06:13:38;11.70;99.90
29363;DHT22;16349;53.672;10.014;2023-06-01T06:16:07;11.80;99.90
29363;DHT22;16349;53.672;10.014;2023-06-01T06:18:35;11.80;99.90
29363;DHT22;16349;53.672;10.014;2023-06-01T06:21:01;11.80;99.90
29363;DHT22;16349;53.672;10.014;2023-06-01T06:23:30;11.80;99.90
29363;DHT22;16349;53.672;10.014;2023-06-01T06:25:58;11.80;99.90
29363;DHT22;16349;53.672;10.014;2023-06-01T06:28:25;11.90;99.90
29363;DHT22;16349;53.672;10.014;2023-06-01T06:30:53;12.00;99.90
29363;DHT22;16349;53.672;10.014;2023-06-01T06:33:21;12.00;99.90
29363;DHT22;16349;53.672;10.014;2023-06-01T06:35:49;12.00;99.90
29363;DHT22;16349;53.672;10.014;2023-06-01T06:38:16;12.00;99.90
29363;DHT22;16349;53.672;10.014;2023-06-01T06:40:44;12.00;99.90
29363;DHT22;16349;53.672;10.014;2023-06-01T06:43:11;12.10;99.90
29363;DHT22;16349;53.672;10.014;2023-06-01T06:45:39;12.10;99.90
29363;DHT22;16349;53.672;10.014;2023-06-01T06:48:07;12.10;99.90
29363;DHT22;16349;53.672;10.014;2023-06-01T06:50:35;12.20;99.90
29363;DHT22;16349;53.672;10.014;2023-06-01T06:53:03;12.20;99.90
29363;DHT22;16349;53.672;10.014;2023-06-01T06:55:30;12.20;99.90
29363;DHT22;16349;53.672;10.014;2023-06-01T06:57:58;12.20;99.90
29363;DHT22;16349;53.672;10.014;2023-06-01T07:00:27;12.20;99.90
29363;DHT22;16349;53.672;10.014;2023-06-01T07:02:56;12.20;99.90
29363;DHT22;16349;53.672;10.014;2023-06-01T07:05:24;12.20;99.90
29363;DHT22;16349;53.672;10.014;2023-06-01T07:07:55;12.30;99.90
29363;DHT22;16349;53.672;10.014;2023-06-01T07:10:24;12.30;99.90
29363;DHT22;16349;53.672;10.014;2023-06-01T07:12:52;12.30;99.90
29363;DHT22;16349;53.672;10.014;2023-06-01T07:15:20;12.40;99.90
29363;DHT22;16349;53.672;10.014;2023-06-01T07:17:47;12.40;99.90
29363;DHT22;16349;53.672;10.014;2023-06-01T07:20:14;12.50;99.90
29363;DHT22;16349;53.672;10.014;2023-06-01T07:22:41;12.50;99.90
29363;DHT22;16349;53.672;10.014;2023-06-01T07:25:10;12.50;99.90
29363;DHT22;16349;53.672;10.014;2023-06-01T07:27:38;12.50;99.90
29363;DHT22;16349;53.672;10.014;2023-06-01T07:30:09;12.50;99.90
29363;DHT22;16349;53.672;10.014;2023-06-01T07:32:37;12.50;99.90
29363;DHT22;16349;53.672;10.014;2023-06-01T07:35:05;12.50;99.90
29363;DHT22;16349;53.672;10.014;2023-06-01T07:37:33;12.60;99.90
29363;DHT22;16349;53.672;10.014;2023-06-01T07:39:59;12.60;99.90
29363;DHT22;16349;53.672;10.014;2023-06-01T07:42:28;12.70;99.90
29363;DHT22;16349;53.672;10.014;2023-06-01T07:44:55;12.70;99.90
29363;DHT22;16349;53.672;10.014;2023-06-01T07:47:22;12.70;99.90
29363;DHT22;16349;53.672;10.014;2023-06-01T07:49:50;12.70;99.90
29363;DHT22;16349;53.672;10.014;2023-06-01T07:52:17;12.70;99.90
29363;DHT22;16349;53.672;10.014;2023-06-01T07:54:43;12.70;99.90
29363;DHT22;16349;53.672;10.014;2023-06-01T07:57:11;12.70;99.90
29363;DHT22;16349;53.672;10.014;2023-06-01T07:59:39;12.70;99.90
29363;DHT22;16349;53.672;10.014;2023-06-01T08:02:06;12.70;99.90
29363;DHT22;16349;53.672;10.014;2023-06-01T08:04:33;12.80;99.90
29363;DHT22;16349;53.672;10.014;2023-06-01T08:07:01;12.80;99.90
29363;DHT22;16349;53.672;10.014;2023-06-01T08:09:29;12.90;99.90
29363;DHT22;16349;53.672;10.014;2023-06-01T08:11:56;13.00;99.90
29363;DHT22;16349;53.672;10.014;2023-06-01T08:14:23;13.10;99.90
29363;DHT22;16349;53.672;10.014;2023-06-01T08:16:51;13.20;99.90
29363;DHT22;16349;53.672;10.014;2023-06-01T08:19:18;13.20;99.90
29363;DHT22;16349;53.672;10.014;2023-06-01T08:21:45;13.30;99.90
29363;DHT22;16349;53.672;10.014;2023-06-01T08:24:13;13.30;99.90
29363;DHT22;16349;53.672;10.014;2023-06-01T08:26:40;13.30;99.90
29363;DHT22;16349;53.672;10.014;2023-06-01T08:29:07;13.30;99.90
29363;DHT22;16349;53.672;10.014;2023-06-01T08:31:34;13.30;99.90
29363;DHT22;16349;53.672;10.014;2023-06-01T08:34:03;13.40;99.90
29363;DHT22;16349;53.672;10.014;2023-06-01T08:36:30;13.50;99.90
29363;DHT22;16349;53.672;10.014;2023-06-01T08:38:57;13.60;99.90
29363;DHT22;16349;53.672;10.014;2023-06-01T08:41:26;13.60;99.90
29363;DHT22;16349;53.672;10.014;2023-06-01T08:44:00;13.50;99.90
29363;DHT22;16349;53.672;10.014;2023-06-01T08:46:31;13.40;99.90
29363;DHT22;16349;53.672;10.014;2023-06-01T08:49:00;13.50;99.90
29363;DHT22;16349;53.672;10.014;2023-06-01T08:51:32;13.50;99.90
29363;DHT22;16349;53.672;10.014;2023-06-01T08:54:00;13.60;99.90
29363;DHT22;16349;53.672;10.014;2023-06-01T08:56:27;13.70;99.90
29363;DHT22;16349;53.672;10.014;2023-06-01T08:58:55;13.80;99.90
29363;DHT22;16349;53.672;10.014;2023-06-01T09:01:24;13.80;99.90
29363;DHT22;16349;53.672;10.014;2023-06-01T09:03:51;13.80;99.90
29363;DHT22;16349;53.672;10.014;2023-06-01T09:06:19;13.70;99.90
29363;DHT22;16349;53.672;10.014;2023-06-01T09:08:48;13.80;99.90
29363;DHT22;16349;53.672;10.014;2023-06-01T09:11:15;13.90;99.90
29363;DHT22;16349;53.672;10.014;2023-06-01T09:13:42;13.90;99.90
29363;DHT22;16349;53.672;10.014;2023-06-01T09:16:09;14.00;99.90
29363;DHT22;16349;53.672;10.014;2023-06-01T09:18:36;14.00;99.90
29363;DHT22;16349;53.672;10.014;2023-06-01T09:21:13;14.00;99.90
29363;DHT22;16349;53.672;10.014;2023-06-01T09:23:41;14.00;99.90
29363;DHT22;16349;53.672;10.014;2023-06-01T09:26:10;14.00;99.90
29363;DHT22;16349;53.672;10.014;2023-06-01T09:28:56;14.00;99.90
29363;DHT22;16349;53.672;10.014;2023-06-01T09:31:37;14.00;99.90
29363;DHT22;16349;53.672;10.014;2023-06-01T09:34:06;14.00;99.90
29363;DHT22;16349;53.672;10.014;2023-06-01T09:36:33;14.00;99.90
29363;DHT22;16349;53.672;10.014;2023-06-01T09:39:01;14.00;99.90
29363;DHT22;16349;53.672;10.014;2023-06-01T09:41:44;14.00;99.90
29363;DHT22;16349;53.672;10.014;2023-06-01T09:44:10;14.10;99.90
29363;DHT22;16349;53.672;10.014;2023-06-01T09:46:46;14.30;99.90
29363;DHT22;16349;53.672;10.014;2023-06-01T09:49:18;14.40;99.90
29363;DHT22;16349;53.672;10.014;2023-06-01T09:51:46;14.40;99.90
29363;DHT22;16349;53.672;10.014;2023-06-01T09:54:22;14.30;99.90
29363;DHT22;16349;53.672;10.014;2023-06-01T09:56:51;14.30;99.90
29363;DHT22;16349;53.672;10.014;2023-06-01T09:59:19;14.20;99.90
29363;DHT22;16349;53.672;10.014;2023-06-01T10:01:50;14.20;99.90
29363;DHT22;16349;53.672;10.014;2023-06-01T10:04:20;14.30;99.90
29363;DHT22;16349;53.672;10.014;2023-06-01T10:06:47;14.40;99.90
29363;DHT22;16349;53.672;10.014;2023-06-01T10:09:17;14.50;99.90
29363;DHT22;16349;53.672;10.014;2023-06-01T10:11:45;14.50;99.90
29363;DHT22;16349;53.672;10.014;2023-06-01T10:14:14;14.50;99.90
29363;DHT22;16349;53.672;10.014;2023-06-01T10:16:41;14.50;99.90
29363;DHT22;16349;53.672;10.014;2023-06-01T10:19:08;14.50;99.90
29363;DHT22;16349;53.672;10.014;2023-06-01T10:21:35;14.60;99.90
29363;DHT22;16349;53.672;10.014;2023-06-01T10:24:02;14.60;99.90
29363;DHT22;16349;53.672;10.014;2023-06-01T10:26:35;14.60;99.90
29363;DHT22;16349;53.672;10.014;2023-06-01T10:29:02;14.70;99.90
29363;DHT22;16349;53.672;10.014;2023-06-01T10:31:38;14.70;99.90
29363;DHT22;16349;53.672;10.014;2023-06-01T10:34:06;14.80;99.90
29363;DHT22;16349;53.672;10.014;2023-06-01T10:39:37;14.80;99.90
29363;DHT22;16349;53.672;10.014;2023-06-01T10:42:36;14.80;99.90
29363;DHT22;16349;53.672;10.014;2023-06-01T10:45:07;14.70;99.90
29363;DHT22;16349;53.672;10.014;2023-06-01T10:47:46;14.70;99.90
29363;DHT22;16349;53.672;10.014;2023-06-01T10:50:15;14.80;99.90
29363;DHT22;16349;53.672;10.014;2023-06-01T10:52:42;15.00;99.90
29363;DHT22;16349;53.672;10.014;2023-06-01T10:55:23;15.10;99.90
29363;DHT22;16349;53.672;10.014;2023-06-01T10:57:50;15.10;99.90
29363;DHT22;16349;53.672;10.014;2023-06-01T11:00:19;15.10;99.90
29363;DHT22;16349;53.672;10.014;2023-06-01T11:02:51;15.10;99.90
29363;DHT22;16349;53.672;10.014;2023-06-01T11:05:42;14.90;99.90
29363;DHT22;16349;53.672;10.014;2023-06-01T11:08:52;15.00;99.90
29363;DHT22;16349;53.672;10.014;2023-06-01T11:11:19;15.10;99.90
29363;DHT22;16349;53.672;10.014;2023-06-01T11:14:06;15.00;99.90
29363;DHT22;16349;53.672;10.014;2023-06-01T11:16:33;15.00;99.90
29363;DHT22;16349;53.672;10.014;2023-06-01T11:19:03;15.00;99.90
29363;DHT22;16349;53.672;10.014;2023-06-01T11:21:32;15.00;99.90
29363;DHT22;16349;53.672;10.014;2023-06-01T11:24:04;15.10;99.90
29363;DHT22;16349;53.672;10.014;2023-06-01T11:26:34;15.20;99.90
29363;DHT22;16349;53.672;10.014;2023-06-01T11:29:09;15.20;99.90
29363;DHT22;16349;53.672;10.014;2023-06-01T11:31:40;15.20;99.90
29363;DHT22;16349;53.672;10.014;2023-06-01T11:34:10;15.10;99.90
29363;DHT22;16349;53.672;10.014;2023-06-01T11:36:38;15.00;99.90
29363;DHT22;16349;53.672;10.014;2023-06-01T11:39:05;14.80;99.90
29363;DHT22;16349;53.672;10.014;2023-06-01T11:41:42;14.80;99.90
29363;DHT22;16349;53.672;10.014;2023-06-01T11:44:09;14.70;99.90
29363;DHT22;16349;53.672;10.014;2023-06-01T11:46:36;14.80;99.90
29363;DHT22;16349;53.672;10.014;2023-06-01T11:49:04;15.00;99.90
29363;DHT22;16349;53.672;10.014;2023-06-01T11:51:35;14.90;99.90
29363;DHT22;16349;53.672;10.014;2023-06-01T11:54:03;14.90;99.90
29363;DHT22;16349;53.672;10.014;2023-06-01T11:56:31;14.90;99.90
29363;DHT22;16349;53.672;10.014;2023-06-01T11:58:59;14.90;99.90
29363;DHT22;16349;53.672;10.014;2023-06-01T12:01:27;14.80;99.90
29363;DHT22;16349;53.672;10.014;2023-06-01T12:03:54;14.90;99.90
29363;DHT22;16349;53.672;10.014;2023-06-01T12:06:23;14.80;99.90
29363;DHT22;16349;53.672;10.014;2023-06-01T12:08:53;14.80;99.90
29363;DHT22;16349;53.672;10.014;2023-06-01T12:11:23;15.10;99.90
29363;DHT22;16349;53.672;10.014;2023-06-01T12:13:52;15.40;99.90
29363;DHT22;16349;53.672;10.014;2023-06-01T12:16:20;15.50;99.90
29363;DHT22;16349;53.672;10.014;2023-06-01T12:18:47;15.60;99.90
29363;DHT22;16349;53.672;10.014;2023-06-01T12:21:14;15.70;99.90
29363;DHT22;16349;53.672;10.014;2023-06-01T12:23:42;15.70;99.90
29363;DHT22;16349;53.672;10.014;2023-06-01T12:26:10;15.70;99.90
29363;DHT22;16349;53.672;10.014;2023-06-01T12:28:47;15.90;99.90
29363;DHT22;16349;53.672;10.014;2023-06-01T12:31:15;15.90;99.90
29363;DHT22;16349;53.672;10.014;2023-06-01T12:33:44;16.00;99.90
29363;DHT22;16349;53.672;10.014;2023-06-01T12:36:28;15.70;99.90
29363;DHT22;16349;53.672;10.014;2023-06-01T12:38:57;15.70;99.90
29363;DHT22;16349;53.672;10.014;2023-06-01T12:41:25;15.90;99.90
29363;DHT22;16349;53.672;10.014;2023-06-01T12:43:52;15.90;99.90
29363;DHT22;16349;53.672;10.014;2023-06-01T12:46:20;16.10;99.90
29363;DHT22;16349;53.672;10.014;2023-06-01T12:48:48;16.20;99.90
29363;DHT22;16349;53.672;10.014;2023-06-01T12:51:16;16.10;99.90
29363;DHT22;16349;53.672;10.014;2023-06-01T12:53:43;16.70;99.90
29363;DHT22;16349;53.672;10.014;2023-06-01T12:56:11;16.90;99.90
29363;DHT22;16349;53.672;10.014;2023-06-01T12:58:39;16.80;99.90
29363;DHT22;16349;53.672;10.014;2023-06-01T13:01:06;16.40;99.90
29363;DHT22;16349;53.672;10.014;2023-06-01T13:03:34;16.30;99.90
29363;DHT22;16349;53.672;10.014;2023-06-01T13:06:00;16.40;99.90
29363;DHT22;16349;53.672;10.014;2023-06-01T13:08:27;16.40;99.90
29363;DHT22;16349;53.672;10.014;2023-06-01T13:10:54;16.80;99.90
29363;DHT22;16349;53.672;10.014;2023-06-01T13:13:21;17.20;99.90
29363;DHT22;16349;53.672;10.014;2023-06-01T13:15:50;17.50;99.90
29363;DHT22;16349;53.672;10.014;2023-06-01T13:18:17;17.50;99.90
29363;DHT22;16349;53.672;10.014;2023-06-01T13:20:44;17.90;99.90
29363;DHT22;16349;53.672;10.014;2023-06-01T13:23:11;18.00;99.90
29363;DHT22;16349;53.672;10.014;2023-06-01T13:25:39;17.80;99.90
29363;DHT22;16349;53.672;10.014;2023-06-01T13:28:06;17.40;99.90
29363;DHT22;16349;53.672;10.014;2023-06-01T13:30:34;17.20;99.90
29363;DHT22;16349;53.672;10.014;2023-06-01T13:33:03;17.10;99.90
29363;DHT22;16349;53.672;10.014;2023-06-01T13:35:29;17.30;99.90
29363;DHT22;16349;53.672;10.014;2023-06-01T13:37:57;17.50;99.90
29363;DHT22;16349;53.672;10.014;2023-06-01T13:40:23;17.90;99.90
29363;DHT22;16349;53.672;10.014;2023-06-01T13:42:51;17.90;99.90
29363;DHT22;16349;53.672;10.014;2023-06-01T13:45:20;17.90;99.90
29363;DHT22;16349;53.672;10.014;2023-06-01T13:47:47;18.00;99.90
29363;DHT22;16349;53.672;10.014;2023-06-01T13:50:15;18.30;99.90
29363;DHT22;16349;53.672;10.014;2023-06-01T13:52:43;18.80;99.90
29363;DHT22;16349;53.672;10.014;2023-06-01T13:55:10;19.30;99.10
29363;DHT22;16349;53.672;10.014;2023-06-01T13:57:37;19.50;97.70
29363;DHT22;16349;53.672;10.014;2023-06-01T14:00:05;19.60;98.30
29363;DHT22;16349;53.672;10.014;2023-06-01T14:02:34;19.70;96.90
29363;DHT22;16349;53.672;10.014;2023-06-01T14:05:00;19.10;97.90
29363;DHT22;16349;53.672;10.014;2023-06-01T14:07:29;19.10;98.40
29363;DHT22;16349;53.672;10.014;2023-06-01T14:09:55;19.50;97.40
29363;DHT22;16349;53.672;10.014;2023-06-01T14:12:23;19.60;96.90
29363;DHT22;16349;53.672;10.014;2023-06-01T14:14:49;19.70;96.10
29363;DHT22;16349;53.672;10.014;2023-06-01T14:17:17;19.70;96.20
29363;DHT22;16349;53.672;10.014;2023-06-01T14:19:43;20.30;95.70
29363;DHT22;16349;53.672;10.014;2023-06-01T14:22:10;20.30;94.70
29363;DHT22;16349;53.672;10.014;2023-06-01T14:24:38;20.20;94.60
29363;DHT22;16349;53.672;10.014;2023-06-01T14:27:06;20.30;94.70
29363;DHT22;16349;53.672;10.014;2023-06-01T14:29:33;20.50;94.00
29363;DHT22;16349;53.672;10.014;2023-06-01T14:32:00;19.80;93.90
29363;DHT22;16349;53.672;10.014;2023-06-01T14:34:26;19.10;95.20
29363;DHT22;16349;53.672;10.014;2023-06-01T14:36:54;18.90;95.60
29363;DHT22;16349;53.672;10.014;2023-06-01T14:39:20;18.80;95.90
29363;DHT22;16349;53.672;10.014;2023-06-01T14:41:49;18.90;96.20
29363;DHT22;16349;53.672;10.014;2023-06-01T14:44:16;19.20;95.90
29363;DHT22;16349;53.672;10.014;2023-06-01T14:46:43;19.10;95.60
29363;DHT22;16349;53.672;10.014;2023-06-01T14:49:09;18.40;96.10
29363;DHT22;16349;53.672;10.014;2023-06-01T14:51:36;18.20;96.10
29363;DHT22;16349;53.672;10.014;2023-06-01T14:54:04;18.00;96.50
29363;DHT22;16349;53.672;10.014;2023-06-01T14:56:31;17.90;96.80
29363;DHT22;16349;53.672;10.014;2023-06-01T14:58:59;18.30;96.80
29363;DHT22;16349;53.672;10.014;2023-06-01T15:01:26;18.70;95.80
29363;DHT22;16349;53.672;10.014;2023-06-01T15:03:52;18.70;95.30
29363;DHT22;16349;53.672;10.014;2023-06-01T15:06:19;19.30;94.80
29363;DHT22;16349;53.672;10.014;2023-06-01T15:08:46;19.80;94.40
29363;DHT22;16349;53.672;10.014;2023-06-01T15:11:13;19.40;94.60
29363;DHT22;16349;53.672;10.014;2023-06-01T15:13:40;19.20;94.70
29363;DHT22;16349;53.672;10.014;2023-06-01T15:16:08;19.30;94.50
29363;DHT22;16349;53.672;10.014;2023-06-01T15:18:35;19.40;94.50
29363;DHT22;16349;53.672;10.014;2023-06-01T15:21:02;19.60;94.20
29363;DHT22;16349;53.672;10.014;2023-06-01T15:23:30;19.40;93.90
29363;DHT22;16349;53.672;10.014;2023-06-01T15:25:57;19.70;93.00
29363;DHT22;16349;53.672;10.014;2023-06-01T15:28:24;19.90;93.10
29363;DHT22;16349;53.672;10.014;2023-06-01T15:30:51;20.10;92.10